createdAt,value
2023-03-01T00:00:17.826Z,24.60
2023-03-01T00:00:50.192Z,26.02
2023-03-01T00:01:23.849Z,24.88
2023-03-01T00:01:56.121Z,24.80
2023-03-01T00:02:28.557Z,26.27
2023-03-01T00:03:00.958Z,25.73
2023-03-01T00:03:33.669Z,26.02
2023-03-01T00:04:06.324Z,23.83
2023-03-01T00:04:38.686Z,25.03
2023-03-01T00:05:11.567Z,24.70
2023-03-01T00:05:47.288Z,26.05
2023-03-01T00:06:20.358Z,25.08
2023-03-01T00:06:52.679Z,25.85
2023-03-01T00:07:24.882Z,25.17
2023-03-01T00:07:57.198Z,25.15
2023-03-01T00:08:31.190Z,24.35
2023-03-01T00:09:03.555Z,25.85
2023-03-01T00:09:37.116Z,25.05
2023-03-01T00:10:09.802Z,25.77
2023-03-01T00:10:42.106Z,25.27
2023-03-01T00:11:16.232Z,24.35
2023-03-01T00:11:49.738Z,25.95
2023-03-01T00:12:22.042Z,25.05
2023-03-01T00:12:54.508Z,24.20
2023-03-01T00:13:27.029Z,25.10
2023-03-01T00:14:00.512Z,23.92
2023-03-01T00:14:32.823Z,24.05
2023-03-01T00:15:06.080Z,23.10
2023-03-01T00:15:42.683Z,24.10
2023-03-01T00:16:29.186Z,23.92
2023-03-01T00:17:01.760Z,22.92
2023-03-01T00:17:34.451Z,22.92
2023-03-01T00:18:06.759Z,23.92
2023-03-01T00:18:39.242Z,24.13
2023-03-01T00:19:16.079Z,23.70
2023-03-01T00:19:48.355Z,23.40
2023-03-01T00:20:20.712Z,24.23
2023-03-01T00:20:56.760Z,23.40
2023-03-01T00:21:29.570Z,23.80
2023-03-01T00:22:01.929Z,22.58
2023-03-01T00:22:34.173Z,24.30
2023-03-01T00:23:06.507Z,23.20
2023-03-01T00:23:39.709Z,24.00
2023-03-01T00:24:12.362Z,23.30
2023-03-01T00:24:44.682Z,24.25
2023-03-01T00:25:17.272Z,24.02
2023-03-01T00:25:50.219Z,24.30
2023-03-01T00:26:23.185Z,23.90
2023-03-01T00:26:57.016Z,24.13
2023-03-01T00:27:29.533Z,22.17
2023-03-01T00:28:02.329Z,23.20
2023-03-01T00:28:34.773Z,23.40
2023-03-01T00:29:07.794Z,22.40
2023-03-01T00:29:40.582Z,24.02
2023-03-01T00:30:13.305Z,23.75
2023-03-01T00:30:45.703Z,23.08
2023-03-01T00:31:20.621Z,23.58
2023-03-01T00:31:53.626Z,23.65
2023-03-01T00:32:25.997Z,23.83
2023-03-01T00:32:58.689Z,23.27
2023-03-01T00:33:31.049Z,23.10
2023-03-01T00:34:04.577Z,22.98
2023-03-01T00:34:36.856Z,22.27
2023-03-01T00:35:09.432Z,22.23
2023-03-01T00:35:41.934Z,22.85
2023-03-01T00:36:15.639Z,23.40
2023-03-01T00:36:48.415Z,23.52
2023-03-01T00:37:22.069Z,23.05
2023-03-01T00:37:58.983Z,22.00
2023-03-01T00:38:31.576Z,21.40
2023-03-01T00:39:05.504Z,21.50
2023-03-01T00:39:38.070Z,21.42
2023-03-01T00:40:11.558Z,22.27
2023-03-01T00:40:44.085Z,21.83
2023-03-01T00:41:17.663Z,21.23
2023-03-01T00:41:50.060Z,21.90
2023-03-01T00:42:23.283Z,23.10
2023-03-01T00:42:55.912Z,19.83
2023-03-01T00:43:28.163Z,22.38
2023-03-01T00:44:00.572Z,20.98
2023-03-01T00:44:32.976Z,21.33
2023-03-01T00:45:05.510Z,20.45
2023-03-01T00:45:37.787Z,20.02
2023-03-01T00:46:11.920Z,19.90
2023-03-01T00:46:44.317Z,21.00
2023-03-01T00:47:16.691Z,21.25
2023-03-01T00:47:49.766Z,19.45
2023-03-01T00:48:22.172Z,19.95
2023-03-01T00:48:55.469Z,20.30
2023-03-01T00:49:28.762Z,20.25
2023-03-01T00:50:02.442Z,18.75
2023-03-01T00:50:34.948Z,18.58
2023-03-01T00:51:09.313Z,19.35
2023-03-01T00:51:42.696Z,18.65
2023-03-01T00:52:15.008Z,18.88
2023-03-01T00:52:47.387Z,18.27
2023-03-01T00:53:19.760Z,19.63
2023-03-01T00:53:55.885Z,18.83
2023-03-01T00:54:28.201Z,18.30
2023-03-01T00:55:00.604Z,17.10
2023-03-01T00:55:32.990Z,18.92
2023-03-01T00:56:06.371Z,18.27
2023-03-01T00:56:38.682Z,18.88
2023-03-01T00:57:11.482Z,18.48
2023-03-01T00:57:44.147Z,18.40
2023-03-01T00:58:16.659Z,18.05
2023-03-01T00:58:49.245Z,18.45
2023-03-01T00:59:21.528Z,18.08
2023-03-01T00:59:54.921Z,18.40
2023-03-01T01:00:29.136Z,17.60
2023-03-01T01:01:02.573Z,18.50
2023-03-01T01:01:34.934Z,18.33
2023-03-01T01:02:07.238Z,17.48
2023-03-01T01:02:39.639Z,16.52
2023-03-01T01:03:12.395Z,19.13
2023-03-01T01:03:49.428Z,18.50
2023-03-01T01:04:21.830Z,17.38
2023-03-01T01:04:54.176Z,17.80
2023-03-01T01:05:26.530Z,17.90
2023-03-01T01:05:59.342Z,18.50
2023-03-01T01:06:33.734Z,18.27
2023-03-01T01:07:06.809Z,18.75
2023-03-01T01:07:39.457Z,17.83
2023-03-01T01:08:11.872Z,18.38
2023-03-01T01:08:44.194Z,18.30
2023-03-01T01:09:20.339Z,17.55
2023-03-01T01:09:52.776Z,19.00
2023-03-01T01:10:25.084Z,18.95
2023-03-01T01:10:57.766Z,17.70
2023-03-01T01:11:30.882Z,19.42
2023-03-01T01:12:03.752Z,17.10
2023-03-01T01:12:36.520Z,17.33
2023-03-01T01:13:09.239Z,19.52
2023-03-01T01:13:42.124Z,17.88
2023-03-01T01:14:15.097Z,17.17
2023-03-01T01:14:47.791Z,18.65
2023-03-01T01:15:20.828Z,18.52
2023-03-01T01:15:53.330Z,19.17
2023-03-01T01:16:26.549Z,18.97
2023-03-01T01:16:59.312Z,18.85
2023-03-01T01:17:31.543Z,19.30
2023-03-01T01:18:03.961Z,19.00
2023-03-01T01:18:36.604Z,18.95
2023-03-01T01:19:10.181Z,18.73
2023-03-01T01:19:42.654Z,20.50
2023-03-01T01:20:15.041Z,19.63
2023-03-01T01:20:47.819Z,19.92
2023-03-01T01:21:21.417Z,19.90
2023-03-01T01:21:53.937Z,19.53
2023-03-01T01:22:26.245Z,19.38
2023-03-01T01:22:58.446Z,20.63
2023-03-01T01:23:30.813Z,19.40
2023-03-01T01:24:04.093Z,20.05
2023-03-01T01:24:36.499Z,20.63
2023-03-01T01:25:09.132Z,20.13
2023-03-01T01:25:41.622Z,21.02
2023-03-01T01:26:15.705Z,19.17
2023-03-01T01:26:48.018Z,19.88
2023-03-01T01:27:20.364Z,19.93
2023-03-01T01:27:52.717Z,21.33
2023-03-01T01:28:25.013Z,20.45
2023-03-01T01:28:57.621Z,19.92
2023-03-01T01:29:30.694Z,18.88
2023-03-01T01:30:03.513Z,20.58
2023-03-01T01:30:35.908Z,20.08
2023-03-01T01:31:08.776Z,21.52
2023-03-01T01:31:42.119Z,20.73
2023-03-01T01:32:15.101Z,20.75
2023-03-01T01:32:47.550Z,20.37
2023-03-01T01:33:19.836Z,21.25
2023-03-01T01:33:53.002Z,20.58
2023-03-01T01:34:25.401Z,20.52
2023-03-01T01:34:57.719Z,20.67
2023-03-01T01:35:30.429Z,20.17
2023-03-01T01:36:02.758Z,20.25
2023-03-01T01:36:35.311Z,20.30
2023-03-01T01:37:09.038Z,19.95
2023-03-01T01:37:41.780Z,19.75
2023-03-01T01:38:14.272Z,20.70
2023-03-01T01:38:46.749Z,19.77
2023-03-01T01:39:19.464Z,19.92
2023-03-01T01:39:51.740Z,20.10
2023-03-01T01:40:24.002Z,20.58
2023-03-01T01:40:56.459Z,19.45
2023-03-01T01:41:29.914Z,19.95
2023-03-01T01:42:03.129Z,20.52
2023-03-01T01:42:35.453Z,20.65
2023-03-01T01:43:10.563Z,21.08
2023-03-01T01:43:44.323Z,21.53
2023-03-01T01:44:21.091Z,22.48
2023-03-01T01:45:12.079Z,20.25
2023-03-01T01:45:44.984Z,21.23
2023-03-01T01:46:22.829Z,19.88
2023-03-01T01:46:57.928Z,20.95
2023-03-01T01:47:30.849Z,20.67
2023-03-01T01:48:08.056Z,20.33
2023-03-01T01:48:42.184Z,21.23
2023-03-01T01:49:30.401Z,19.45
2023-03-01T01:50:03.252Z,20.20
2023-03-01T01:50:39.522Z,21.00
2023-03-01T01:51:14.152Z,20.67
2023-03-01T01:51:49.487Z,19.80
2023-03-01T01:52:33.127Z,20.17
2023-03-01T01:53:07.844Z,18.95
2023-03-01T01:53:41.172Z,20.17
2023-03-01T01:54:15.817Z,20.90
2023-03-01T01:55:06.949Z,20.55
2023-03-01T01:55:42.146Z,19.63
2023-03-01T01:56:17.086Z,21.30
2023-03-01T01:56:52.244Z,20.60
2023-03-01T01:57:36.446Z,21.70
2023-03-01T01:58:10.099Z,20.88
2023-03-01T01:58:43.425Z,19.20
2023-03-01T01:59:16.077Z,20.13
2023-03-01T01:59:51.118Z,21.02
2023-03-01T02:00:24.940Z,21.20
2023-03-01T02:00:57.702Z,20.75
2023-03-01T02:01:30.080Z,22.00
2023-03-01T02:02:04.417Z,22.10
2023-03-01T02:02:37.593Z,21.33
2023-03-01T02:03:18.954Z,21.80
2023-03-01T02:03:53.099Z,21.33
2023-03-01T02:04:26.691Z,19.80
2023-03-01T02:06:13.877Z,20.02
2023-03-01T02:07:07.899Z,19.98
2023-03-01T02:07:40.965Z,20.15
2023-03-01T02:08:14.432Z,19.38
2023-03-01T02:08:48.528Z,20.08
2023-03-01T02:09:22.536Z,20.90
2023-03-01T02:09:54.981Z,19.73
2023-03-01T02:10:28.099Z,21.08
2023-03-01T02:11:05.394Z,21.73
2023-03-01T02:11:38.826Z,21.80
2023-03-01T02:12:11.563Z,19.63
2023-03-01T02:12:44.132Z,21.02
2023-03-01T02:13:16.525Z,20.42
2023-03-01T02:13:49.578Z,21.00
2023-03-01T02:14:21.917Z,21.97
2023-03-01T02:14:54.189Z,20.35
2023-03-01T02:15:27.773Z,20.85
2023-03-01T02:16:00.642Z,20.15
2023-03-01T02:16:34.050Z,21.77
2023-03-01T02:17:06.871Z,21.10
2023-03-01T02:17:39.404Z,21.60
2023-03-01T02:18:13.155Z,20.55
2023-03-01T02:18:45.885Z,21.20
2023-03-01T02:19:27.846Z,19.23
2023-03-01T02:20:12.114Z,20.85
2023-03-01T02:20:44.435Z,20.17
2023-03-01T02:21:19.513Z,20.42
2023-03-01T02:22:04.130Z,20.23
2023-03-01T02:22:37.978Z,20.38
2023-03-01T02:23:10.450Z,17.95
2023-03-01T02:23:43.093Z,19.38
2023-03-01T02:24:15.390Z,19.42
2023-03-01T02:24:53.469Z,18.73
2023-03-01T02:25:26.121Z,18.73
2023-03-01T02:26:01.796Z,18.35
2023-03-01T02:26:40.417Z,18.25
2023-03-01T02:27:13.062Z,19.77
2023-03-01T02:28:01.983Z,17.35
2023-03-01T02:28:35.717Z,18.95
2023-03-01T02:29:08.318Z,18.67
2023-03-01T02:29:40.776Z,16.58
2023-03-01T02:30:16.189Z,18.13
2023-03-01T02:31:09.181Z,18.20
2023-03-01T02:31:43.137Z,16.60
2023-03-01T02:32:23.157Z,16.73
2023-03-01T02:33:04.086Z,16.98
2023-03-01T02:33:37.530Z,17.38
2023-03-01T02:34:12.174Z,17.38
2023-03-01T02:34:44.516Z,17.73
2023-03-01T02:35:19.132Z,16.95
2023-03-01T02:35:52.198Z,17.70
2023-03-01T02:36:26.397Z,17.02
2023-03-01T02:37:02.666Z,17.58
2023-03-01T02:37:51.695Z,18.23
2023-03-01T02:38:24.212Z,17.75
2023-03-01T02:38:58.803Z,16.30
2023-03-01T02:39:34.544Z,17.33
2023-03-01T02:40:12.831Z,16.95
2023-03-01T02:40:45.973Z,17.90
2023-03-01T02:41:20.393Z,18.25
2023-03-01T02:41:53.769Z,17.38
2023-03-01T02:42:32.941Z,17.00
2023-03-01T02:43:07.487Z,17.50
2023-03-01T02:43:40.049Z,17.35
2023-03-01T02:44:12.503Z,17.23
2023-03-01T02:44:45.531Z,17.65
2023-03-01T02:45:18.027Z,17.77
2023-03-01T02:45:51.328Z,17.10
2023-03-01T02:46:25.168Z,17.60
2023-03-01T02:46:57.999Z,15.45
2023-03-01T02:47:31.796Z,17.90
2023-03-01T02:48:04.382Z,17.80
2023-03-01T02:48:55.485Z,17.77
2023-03-01T02:49:28.164Z,16.92
2023-03-01T02:50:00.745Z,17.38
2023-03-01T02:50:51.922Z,16.25
2023-03-01T02:51:24.295Z,16.65
2023-03-01T02:52:09.826Z,17.30
2023-03-01T02:52:54.545Z,16.83
2023-03-01T02:53:36.372Z,17.40
2023-03-01T02:54:08.819Z,15.10
2023-03-01T02:54:44.214Z,17.75
2023-03-01T02:55:17.769Z,18.40
2023-03-01T02:55:50.960Z,16.73
2023-03-01T02:56:23.320Z,15.57
2023-03-01T02:56:56.385Z,17.02
2023-03-01T02:57:31.062Z,17.77
2023-03-01T02:58:04.460Z,17.77
2023-03-01T02:58:46.404Z,17.15
2023-03-01T02:59:21.498Z,16.30
2023-03-01T02:59:55.610Z,16.75
2023-03-01T03:00:31.858Z,17.27
2023-03-01T03:01:04.452Z,17.83
2023-03-01T03:01:39.733Z,16.42
2023-03-01T03:02:39.695Z,15.23
2023-03-01T03:03:20.413Z,17.15
2023-03-01T03:03:52.795Z,14.88
2023-03-01T03:04:25.313Z,16.38
2023-03-01T03:04:57.567Z,17.17
2023-03-01T03:05:31.659Z,18.38
2023-03-01T03:06:04.435Z,18.90
2023-03-01T03:06:36.995Z,18.45
2023-03-01T03:07:09.705Z,17.75
2023-03-01T03:07:44.402Z,19.42
2023-03-01T03:08:25.427Z,20.98
2023-03-01T03:08:58.464Z,18.13
2023-03-01T03:09:30.799Z,18.67
2023-03-01T03:10:04.359Z,18.70
2023-03-01T03:10:38.719Z,19.27
2023-03-01T03:11:11.391Z,17.42
2023-03-01T03:11:43.916Z,18.08
2023-03-01T03:12:16.301Z,18.25
2023-03-01T03:12:52.628Z,17.77
2023-03-01T03:13:29.547Z,17.58
2023-03-01T03:14:02.733Z,17.40
2023-03-01T03:14:36.073Z,17.98
2023-03-01T03:15:10.003Z,17.65
2023-03-01T03:15:44.220Z,18.77
2023-03-01T03:16:16.954Z,18.80
2023-03-01T03:16:50.769Z,16.48
2023-03-01T03:17:23.155Z,18.17
2023-03-01T03:17:56.378Z,17.05
2023-03-01T03:18:28.860Z,17.92
2023-03-01T03:19:06.223Z,16.90
2023-03-01T03:19:38.573Z,16.90
2023-03-01T03:20:12.980Z,17.25
2023-03-01T03:20:46.060Z,17.83
2023-03-01T03:21:18.366Z,17.23
2023-03-01T03:21:50.793Z,18.85
2023-03-01T03:22:23.360Z,18.00
2023-03-01T03:22:56.722Z,18.02
2023-03-01T03:23:30.643Z,17.92
2023-03-01T03:24:03.252Z,18.05
2023-03-01T03:24:39.524Z,16.52
2023-03-01T03:25:11.945Z,18.70
2023-03-01T03:25:44.390Z,18.13
2023-03-01T03:26:16.737Z,17.95
2023-03-01T03:26:49.050Z,18.73
2023-03-01T03:27:21.330Z,18.77
2023-03-01T03:27:57.943Z,18.85
2023-03-01T03:28:31.815Z,18.98
2023-03-01T03:29:04.353Z,19.42
2023-03-01T03:29:36.790Z,17.98
2023-03-01T03:30:10.170Z,17.77
2023-03-01T03:30:43.102Z,18.40
2023-03-01T03:31:15.473Z,18.45
2023-03-01T03:31:47.894Z,18.17
2023-03-01T03:32:20.309Z,18.98
2023-03-01T03:32:55.588Z,18.77
2023-03-01T03:33:27.927Z,17.90
2023-03-01T03:34:00.246Z,19.48
2023-03-01T03:34:32.510Z,18.05
2023-03-01T03:35:10.588Z,18.95
2023-03-01T03:35:44.546Z,18.45
2023-03-01T03:36:20.467Z,17.55
2023-03-01T03:37:00.565Z,17.25
2023-03-01T03:37:51.165Z,16.17
2023-03-01T03:38:23.978Z,18.67
2023-03-01T03:38:56.254Z,18.63
2023-03-01T03:39:28.986Z,17.77
2023-03-01T03:40:01.253Z,17.23
2023-03-01T03:40:36.315Z,17.83
2023-03-01T03:41:09.780Z,17.13
2023-03-01T03:41:42.257Z,16.13
2023-03-01T03:42:14.715Z,15.77
2023-03-01T03:42:47.074Z,16.05
2023-03-01T03:43:20.582Z,16.52
2023-03-01T03:43:52.984Z,15.15
2023-03-01T03:44:25.417Z,16.17
2023-03-01T03:44:57.688Z,16.80
2023-03-01T03:45:30.066Z,16.50
2023-03-01T03:46:07.102Z,16.60
2023-03-01T03:46:40.582Z,16.25
2023-03-01T03:47:12.847Z,15.68
2023-03-01T03:47:45.229Z,16.48
2023-03-01T03:48:18.311Z,16.15
2023-03-01T03:48:51.310Z,19.00
2023-03-01T03:49:23.672Z,16.15
2023-03-01T03:49:55.972Z,16.23
2023-03-01T03:50:28.345Z,17.48
2023-03-01T03:51:00.681Z,16.30
2023-03-01T03:51:33.023Z,16.42
2023-03-01T03:52:05.376Z,17.15
2023-03-01T03:52:38.161Z,17.35
2023-03-01T03:53:11.925Z,15.82
2023-03-01T03:53:45.011Z,15.73
2023-03-01T03:54:18.346Z,17.00
2023-03-01T03:54:51.048Z,17.23
2023-03-01T03:55:23.439Z,16.05
2023-03-01T03:55:56.299Z,15.75
2023-03-01T03:56:29.049Z,15.93
2023-03-01T03:57:01.436Z,16.35
2023-03-01T03:57:33.786Z,16.55
2023-03-01T03:58:10.052Z,15.32
2023-03-01T03:58:42.333Z,14.88
2023-03-01T03:59:14.815Z,15.15
2023-03-01T03:59:47.167Z,15.75
2023-03-01T04:00:21.040Z,15.25
2023-03-01T04:00:54.566Z,17.20
2023-03-01T04:01:26.952Z,16.08
2023-03-01T04:01:59.468Z,16.80
2023-03-01T04:02:32.053Z,16.23
2023-03-01T04:03:04.452Z,17.13
2023-03-01T04:03:36.865Z,16.20
2023-03-01T04:04:09.138Z,16.10
2023-03-01T04:04:41.485Z,15.63
2023-03-01T04:05:15.544Z,16.30
2023-03-01T04:05:48.571Z,16.58
2023-03-01T04:06:21.335Z,16.23
2023-03-01T04:06:53.712Z,16.17
2023-03-01T04:07:26.002Z,17.20
2023-03-01T04:08:04.703Z,17.33
2023-03-01T04:08:37.029Z,17.05
2023-03-01T04:09:09.294Z,16.88
2023-03-01T04:09:43.815Z,17.15
2023-03-01T04:10:17.610Z,16.83
2023-03-01T04:10:51.227Z,17.38
2023-03-01T04:11:29.070Z,17.45
2023-03-01T04:12:01.506Z,16.38
2023-03-01T04:12:35.681Z,16.08
2023-03-01T04:13:21.599Z,16.02
2023-03-01T04:13:55.348Z,15.32
2023-03-01T04:14:27.637Z,15.40
2023-03-01T04:14:59.902Z,15.82
2023-03-01T04:15:33.646Z,16.43
2023-03-01T04:16:06.153Z,15.77
2023-03-01T04:16:38.471Z,15.40
2023-03-01T04:17:10.809Z,16.08
2023-03-01T04:17:43.847Z,15.63
2023-03-01T04:18:17.323Z,16.02
2023-03-01T04:18:50.567Z,16.45
2023-03-01T04:19:22.964Z,16.30
2023-03-01T04:19:55.247Z,15.27
2023-03-01T04:20:29.559Z,15.45
2023-03-01T04:21:01.790Z,15.57
2023-03-01T04:21:34.111Z,16.45
2023-03-01T04:22:10.475Z,16.13
2023-03-01T04:22:42.956Z,16.38
2023-03-01T04:23:17.036Z,16.65
2023-03-01T04:23:49.650Z,15.90
2023-03-01T04:24:23.478Z,16.58
2023-03-01T04:24:56.450Z,17.48
2023-03-01T04:25:28.713Z,18.38
2023-03-01T04:26:04.115Z,17.38
2023-03-01T04:26:36.481Z,18.52
2023-03-01T04:27:08.753Z,18.17
2023-03-01T04:27:41.683Z,18.27
2023-03-01T04:28:14.113Z,17.00
2023-03-01T04:28:46.975Z,17.48
2023-03-01T04:29:19.350Z,17.52
2023-03-01T04:29:51.690Z,19.33
2023-03-01T04:30:26.539Z,19.95
2023-03-01T04:30:59.461Z,18.33
2023-03-01T04:31:31.742Z,18.27
2023-03-01T04:32:04.461Z,17.90
2023-03-01T04:32:36.911Z,18.73
2023-03-01T04:33:10.294Z,19.05
2023-03-01T04:33:43.607Z,18.52
2023-03-01T04:34:16.273Z,18.65
2023-03-01T04:34:48.777Z,18.30
2023-03-01T04:35:21.955Z,18.38
2023-03-01T04:35:54.745Z,18.65
2023-03-01T04:36:28.666Z,16.75
2023-03-01T04:37:01.108Z,17.00
2023-03-01T04:37:33.654Z,18.45
2023-03-01T04:38:06.680Z,18.42
2023-03-01T04:38:39.557Z,18.35
2023-03-01T04:39:14.606Z,16.35
2023-03-01T04:39:48.846Z,17.77
2023-03-01T04:40:22.493Z,16.75
2023-03-01T04:40:54.785Z,16.90
2023-03-01T04:41:27.354Z,16.63
2023-03-01T04:41:59.681Z,18.05
2023-03-01T04:42:32.148Z,17.27
2023-03-01T04:43:04.770Z,13.48
2023-03-01T04:43:37.400Z,17.08
2023-03-01T04:44:10.397Z,17.42
2023-03-01T04:44:42.735Z,17.27
2023-03-01T04:45:15.201Z,17.23
2023-03-01T04:45:47.624Z,17.13
2023-03-01T04:46:20.831Z,16.35
2023-03-01T04:46:53.134Z,17.05
2023-03-01T04:47:25.568Z,15.88
2023-03-01T04:47:59.423Z,16.83
2023-03-01T04:48:32.830Z,16.48
2023-03-01T04:49:05.210Z,15.68
2023-03-01T04:49:37.522Z,16.65
2023-03-01T04:50:11.061Z,16.15
2023-03-01T04:50:43.371Z,17.35
2023-03-01T04:51:15.872Z,16.75
2023-03-01T04:51:48.251Z,17.98
2023-03-01T04:52:20.670Z,16.35
2023-03-01T04:52:53.185Z,18.58
2023-03-01T04:53:25.897Z,16.10
2023-03-01T04:53:58.350Z,17.67
2023-03-01T04:54:31.320Z,16.00
2023-03-01T04:55:04.723Z,16.45
2023-03-01T04:55:37.165Z,16.30
2023-03-01T04:56:09.634Z,14.50
2023-03-01T04:56:41.948Z,15.48
2023-03-01T04:57:14.250Z,16.58
2023-03-01T04:57:46.591Z,17.15
2023-03-01T04:58:18.942Z,16.88
2023-03-01T04:58:54.042Z,15.45
2023-03-01T04:59:26.426Z,14.80
2023-03-01T04:59:58.787Z,15.98
2023-03-01T05:00:31.090Z,17.25
2023-03-01T05:01:16.561Z,16.15
2023-03-01T05:01:53.182Z,15.05
2023-03-01T05:02:26.100Z,16.20
2023-03-01T05:03:00.615Z,16.63
2023-03-01T05:03:33.115Z,16.70
2023-03-01T05:04:06.621Z,16.45
2023-03-01T05:04:39.109Z,16.13
2023-03-01T05:05:11.696Z,16.73
2023-03-01T05:05:45.392Z,16.83
2023-03-01T05:06:18.348Z,15.63
2023-03-01T05:06:50.691Z,17.40
2023-03-01T05:07:23.353Z,16.17
2023-03-01T05:07:56.761Z,15.50
2023-03-01T05:08:29.165Z,16.92
2023-03-01T05:09:01.642Z,16.55
2023-03-01T05:09:34.093Z,16.10
2023-03-01T05:10:06.590Z,15.90
2023-03-01T05:10:40.334Z,17.85
2023-03-01T05:11:13.077Z,16.95
2023-03-01T05:11:45.776Z,16.70
2023-03-01T05:12:18.115Z,15.50
2023-03-01T05:12:50.610Z,17.65
2023-03-01T05:13:23.176Z,15.13
2023-03-01T05:13:56.378Z,16.17
2023-03-01T05:14:29.947Z,16.52
2023-03-01T05:15:03.397Z,16.42
2023-03-01T05:15:37.633Z,17.10
2023-03-01T05:16:13.489Z,16.35
2023-03-01T05:16:45.941Z,16.38
2023-03-01T05:17:18.227Z,16.08
2023-03-01T05:17:50.646Z,16.85
2023-03-01T05:18:27.109Z,16.83
2023-03-01T05:19:00.093Z,17.08
2023-03-01T05:19:32.656Z,16.48
2023-03-01T05:20:09.900Z,17.10
2023-03-01T05:20:42.265Z,16.58
2023-03-01T05:21:17.473Z,16.15
2023-03-01T05:22:19.338Z,16.45
2023-03-01T05:22:52.680Z,15.00
2023-03-01T05:23:26.059Z,15.82
2023-03-01T05:23:58.339Z,15.30
2023-03-01T05:24:31.551Z,16.85
2023-03-01T05:25:04.402Z,16.50
2023-03-01T05:25:41.343Z,16.55
2023-03-01T05:26:27.893Z,16.17
2023-03-01T05:27:01.483Z,16.00
2023-03-01T05:27:34.160Z,15.45
2023-03-01T05:28:06.872Z,17.15
2023-03-01T05:28:39.179Z,14.95
2023-03-01T05:29:11.491Z,14.85
2023-03-01T05:29:43.860Z,16.70
2023-03-01T05:30:18.070Z,16.02
2023-03-01T05:30:52.980Z,16.10
2023-03-01T05:31:25.412Z,16.13
2023-03-01T05:32:02.142Z,15.88
2023-03-01T05:32:35.002Z,15.68
2023-03-01T05:33:14.777Z,15.77
2023-03-01T05:33:47.182Z,15.45
2023-03-01T05:34:19.496Z,15.05
2023-03-01T05:34:53.356Z,17.52
2023-03-01T05:35:25.823Z,18.45
2023-03-01T05:36:00.971Z,21.08
2023-03-01T05:36:33.600Z,18.70
2023-03-01T05:37:06.729Z,18.85
2023-03-01T05:37:39.060Z,20.50
2023-03-01T05:38:14.892Z,20.33
2023-03-01T05:38:47.209Z,18.05
2023-03-01T05:39:20.469Z,16.70
2023-03-01T05:39:53.296Z,16.92
2023-03-01T05:40:25.780Z,15.52
2023-03-01T05:40:58.069Z,15.30
2023-03-01T05:41:30.504Z,15.80
2023-03-01T05:42:03.287Z,14.68
2023-03-01T05:42:35.635Z,15.57
2023-03-01T05:43:08.504Z,16.25
2023-03-01T05:43:43.026Z,16.15
2023-03-01T05:44:15.403Z,12.80
2023-03-01T05:44:47.865Z,14.88
2023-03-01T05:45:20.231Z,15.60
2023-03-01T05:45:52.689Z,15.45
2023-03-01T05:46:25.970Z,17.02
2023-03-01T05:46:58.513Z,15.13
2023-03-01T05:47:32.872Z,14.02
2023-03-01T05:48:06.650Z,13.57
2023-03-01T05:48:40.129Z,13.15
2023-03-01T05:49:14.669Z,16.20
2023-03-01T05:49:46.978Z,17.52
2023-03-01T05:50:23.448Z,14.25
2023-03-01T05:50:55.766Z,15.02
2023-03-01T05:51:28.118Z,16.60
2023-03-01T05:52:00.742Z,18.15
2023-03-01T05:52:33.157Z,16.05
2023-03-01T05:53:09.719Z,16.25
2023-03-01T05:53:42.421Z,16.38
2023-03-01T05:54:14.743Z,16.40
2023-03-01T05:54:47.127Z,16.38
2023-03-01T05:55:20.542Z,15.63
2023-03-01T05:55:53.445Z,16.75
2023-03-01T05:56:26.039Z,16.10
2023-03-01T05:56:58.351Z,16.38
2023-03-01T05:57:31.045Z,15.40
2023-03-01T05:58:04.380Z,15.40
2023-03-01T05:58:36.742Z,15.05
2023-03-01T05:59:09.050Z,14.63
2023-03-01T05:59:41.428Z,15.05
2023-03-01T06:00:14.843Z,16.75
2023-03-01T06:00:47.958Z,15.07
2023-03-01T06:01:20.542Z,15.85
2023-03-01T06:01:53.241Z,15.80
2023-03-01T06:02:25.526Z,15.02
2023-03-01T06:02:58.297Z,14.98
2023-03-01T06:03:30.644Z,16.27
2023-03-01T06:04:03.487Z,15.90
2023-03-01T06:04:36.197Z,15.57
2023-03-01T06:05:09.445Z,15.68
2023-03-01T06:05:42.405Z,16.48
2023-03-01T06:06:14.788Z,15.23
2023-03-01T06:06:47.246Z,16.30
2023-03-01T06:07:19.691Z,15.98
2023-03-01T06:07:52.366Z,18.75
2023-03-01T06:08:25.515Z,17.63
2023-03-01T06:08:57.945Z,17.92
2023-03-01T06:09:30.231Z,17.95
2023-03-01T06:10:26.427Z,18.35
2023-03-01T06:10:58.731Z,18.42
2023-03-01T06:11:31.249Z,18.23
2023-03-01T06:12:03.633Z,17.52
2023-03-01T06:12:36.920Z,18.00
2023-03-01T06:13:09.454Z,18.25
2023-03-01T06:13:42.913Z,16.48
2023-03-01T06:14:16.199Z,18.63
2023-03-01T06:14:49.519Z,19.55
2023-03-01T06:15:21.964Z,18.15
2023-03-01T06:15:54.324Z,17.33
2023-03-01T06:16:26.780Z,19.30
2023-03-01T06:16:59.396Z,17.65
2023-03-01T06:17:32.598Z,17.15
2023-03-01T06:18:05.128Z,18.58
2023-03-01T06:18:38.004Z,17.52
2023-03-01T06:19:10.558Z,19.20
2023-03-01T06:19:42.937Z,18.85
2023-03-01T06:20:16.923Z,20.92
2023-03-01T06:20:55.393Z,17.08
2023-03-01T06:21:27.703Z,17.63
2023-03-01T06:22:00.063Z,16.58
2023-03-01T06:22:32.613Z,18.80
2023-03-01T06:23:05.419Z,21.58
2023-03-01T06:23:37.772Z,20.70
2023-03-01T06:24:10.383Z,19.55
2023-03-01T06:24:42.871Z,20.55
2023-03-01T06:25:16.882Z,19.15
2023-03-01T06:25:49.187Z,20.00
2023-03-01T06:26:21.465Z,21.13
2023-03-01T06:26:54.070Z,20.02
2023-03-01T06:27:26.430Z,19.30
2023-03-01T06:27:58.891Z,19.35
2023-03-01T06:28:31.395Z,18.48
2023-03-01T06:29:03.902Z,18.45
2023-03-01T06:29:36.163Z,18.13
2023-03-01T06:30:09.085Z,15.80
2023-03-01T06:30:41.433Z,15.70
2023-03-01T06:31:14.150Z,15.45
2023-03-01T06:31:47.010Z,16.35
2023-03-01T06:32:19.992Z,16.17
2023-03-01T06:32:52.571Z,15.25
2023-03-01T06:33:25.566Z,14.50
2023-03-01T06:33:58.289Z,15.32
2023-03-01T06:34:31.039Z,15.37
2023-03-01T06:35:03.374Z,14.43
2023-03-01T06:35:36.233Z,15.15
2023-03-01T06:36:09.087Z,14.98
2023-03-01T06:36:41.409Z,15.23
2023-03-01T06:37:13.705Z,13.82
2023-03-01T06:37:46.793Z,15.35
2023-03-01T06:38:20.218Z,13.30
2023-03-01T06:38:52.551Z,13.32
2023-03-01T06:39:24.930Z,14.77
2023-03-01T06:39:57.525Z,14.27
2023-03-01T06:40:30.350Z,13.85
2023-03-01T06:41:03.076Z,14.38
2023-03-01T06:41:35.357Z,14.23
2023-03-01T06:42:09.002Z,13.90
2023-03-01T06:42:44.052Z,13.48
2023-03-01T06:43:16.394Z,14.98
2023-03-01T06:43:48.665Z,15.23
2023-03-01T06:44:21.098Z,15.70
2023-03-01T06:44:53.367Z,14.45
2023-03-01T06:45:26.094Z,13.97
2023-03-01T06:45:58.597Z,13.65
2023-03-01T06:46:31.160Z,14.23
2023-03-01T06:47:04.511Z,13.50
2023-03-01T06:47:36.933Z,14.13
2023-03-01T06:48:09.456Z,14.55
2023-03-01T06:48:42.167Z,14.15
2023-03-01T06:49:14.522Z,15.50
2023-03-01T06:49:46.828Z,14.30
2023-03-01T06:50:19.490Z,15.23
2023-03-01T06:50:51.909Z,14.27
2023-03-01T06:51:24.288Z,15.05
2023-03-01T06:51:56.799Z,14.27
2023-03-01T06:52:29.097Z,13.52
2023-03-01T06:53:01.789Z,14.32
2023-03-01T06:53:34.113Z,14.52
2023-03-01T06:54:06.415Z,13.43
2023-03-01T06:54:38.813Z,15.15
2023-03-01T06:55:11.235Z,14.70
2023-03-01T06:55:43.669Z,15.00
2023-03-01T06:56:15.986Z,15.33
2023-03-01T06:56:48.276Z,13.60
2023-03-01T06:57:20.827Z,13.95
2023-03-01T06:57:57.358Z,15.52
2023-03-01T06:58:29.856Z,14.50
2023-03-01T06:59:03.875Z,13.93
2023-03-01T06:59:36.161Z,14.32
2023-03-01T07:00:09.347Z,14.45
2023-03-01T07:00:42.090Z,14.43
2023-03-01T07:01:14.454Z,13.57
2023-03-01T07:01:46.782Z,14.23
2023-03-01T07:02:19.296Z,14.00
2023-03-01T07:02:51.837Z,14.13
2023-03-01T07:03:24.185Z,13.55
2023-03-01T07:03:56.663Z,15.00
2023-03-01T07:04:30.192Z,14.85
2023-03-01T07:05:02.572Z,14.15
2023-03-01T07:05:34.930Z,14.75
2023-03-01T07:06:07.262Z,14.00
2023-03-01T07:06:39.638Z,12.90
2023-03-01T07:07:12.253Z,15.13
2023-03-01T07:07:44.806Z,14.45
2023-03-01T07:08:17.272Z,14.27
2023-03-01T07:08:49.528Z,15.00
2023-03-01T07:09:24.789Z,14.27
2023-03-01T07:09:57.090Z,14.18
2023-03-01T07:10:29.565Z,13.90
2023-03-01T07:11:03.585Z,13.68
2023-03-01T07:11:36.149Z,14.93
2023-03-01T07:12:09.223Z,13.38
2023-03-01T07:12:42.434Z,14.53
2023-03-01T07:13:16.048Z,13.80
2023-03-01T07:13:48.415Z,14.75
2023-03-01T07:14:21.013Z,14.32
2023-03-01T07:14:53.348Z,14.25
2023-03-01T07:15:26.267Z,14.55